sensor_id;sensor_type;location;lat;lon;timestamp;P1;durP1;ratioP1;P2;durP2;ratioP2
49384;SDS011;36795;45.028;38.968;2022-08-01T00:02:46;25.70;;;9.18;;
49384;SDS011;36795;45.028;38.968;2022-08-01T00:05:33;27.02;;;8.95;;
49384;SDS011;36795;45.028;38.968;2022-08-01T00:08:19;28.00;;;8.52;;
49384;SDS011;36795;45.028;38.968;2022-08-01T00:11:05;24.15;;;9.10;;
49384;SDS011;36795;45.028;38.968;2022-08-01T00:13:51;25.73;;;9.95;;
49384;SDS011;36795;45.028;38.968;2022-08-01T00:16:37;25.48;;;8.90;;
49384;SDS011;36795;45.028;38.968;2022-08-01T00:19:22;24.75;;;8.75;;
49384;SDS011;36795;45.028;38.968;2022-08-01T00:22:09;23.83;;;8.73;;
49384;SDS011;36795;45.028;38.968;2022-08-01T00:24:55;27.37;;;9.35;;
49384;SDS011;36795;45.028;38.968;2022-08-01T00:27:42;23.10;;;8.40;;
49384;SDS011;36795;45.028;38.968;2022-08-01T00:30:27;26.62;;;8.80;;
49384;SDS011;36795;45.028;38.968;2022-08-01T00:33:14;25.98;;;9.20;;
49384;SDS011;36795;45.028;38.968;2022-08-01T00:36:00;26.17;;;9.00;;
49384;SDS011;36795;45.028;38.968;2022-08-01T00:38:46;24.42;;;9.10;;
49384;SDS011;36795;45.028;38.968;2022-08-01T00:41:32;24.52;;;9.93;;
49384;SDS011;36795;45.028;38.968;2022-08-01T00:44:19;26.83;;;9.30;;
49384;SDS011;36795;45.028;38.968;2022-08-01T00:47:05;28.42;;;9.77;;
49384;SDS011;36795;45.028;38.968;2022-08-01T00:49:52;26.15;;;9.90;;
49384;SDS011;36795;45.028;38.968;2022-08-01T00:52:38;28.70;;;10.35;;
49384;SDS011;36795;45.028;38.968;2022-08-01T00:55:26;27.73;;;9.82;;
49384;SDS011;36795;45.028;38.968;2022-08-01T00:58:14;27.27;;;9.40;;
49384;SDS011;36795;45.028;38.968;2022-08-01T01:01:00;22.95;;;9.77;;
49384;SDS011;36795;45.028;38.968;2022-08-01T01:03:46;26.60;;;9.98;;
49384;SDS011;36795;45.028;38.968;2022-08-01T01:15:24;27.10;;;10.52;;
49384;SDS011;36795;45.028;38.968;2022-08-01T01:18:15;26.95;;;10.50;;
49384;SDS011;36795;45.028;38.968;2022-08-01T01:24:11;26.08;;;9.65;;
49384;SDS011;36795;45.028;38.968;2022-08-01T01:27:36;23.75;;;10.27;;
49384;SDS011;36795;45.028;38.968;2022-08-01T01:30:31;23.15;;;10.43;;
49384;SDS011;36795;45.028;38.968;2022-08-01T01:33:18;25.27;;;10.77;;
49384;SDS011;36795;45.028;38.968;2022-08-01T01:36:08;26.55;;;10.93;;
49384;SDS011;36795;45.028;38.968;2022-08-01T01:38:57;29.02;;;10.52;;
49384;SDS011;36795;45.028;38.968;2022-08-01T01:41:46;23.67;;;11.00;;
49384;SDS011;36795;45.028;38.968;2022-08-01T01:44:33;28.17;;;11.70;;
49384;SDS011;36795;45.028;38.968;2022-08-01T01:47:21;23.58;;;10.98;;
49384;SDS011;36795;45.028;38.968;2022-08-01T01:50:09;24.70;;;10.68;;
49384;SDS011;36795;45.028;38.968;2022-08-01T01:52:58;26.20;;;11.23;;
49384;SDS011;36795;45.028;38.968;2022-08-01T01:55:46;26.73;;;10.88;;
49384;SDS011;36795;45.028;38.968;2022-08-01T01:58:35;26.17;;;11.18;;
49384;SDS011;36795;45.028;38.968;2022-08-01T02:01:25;23.95;;;10.20;;
49384;SDS011;36795;45.028;38.968;2022-08-01T02:04:15;28.45;;;11.93;;
49384;SDS011;36795;45.028;38.968;2022-08-01T02:07:03;22.98;;;11.12;;
49384;SDS011;36795;45.028;38.968;2022-08-01T02:09:53;25.73;;;10.77;;
49384;SDS011;36795;45.028;38.968;2022-08-01T02:12:41;23.15;;;10.95;;
49384;SDS011;36795;45.028;38.968;2022-08-01T02:15:31;24.27;;;10.90;;
49384;SDS011;36795;45.028;38.968;2022-08-01T02:18:20;27.13;;;11.48;;
49384;SDS011;36795;45.028;38.968;2022-08-01T02:21:08;24.42;;;11.98;;
49384;SDS011;36795;45.028;38.968;2022-08-01T02:24:00;25.98;;;11.65;;
49384;SDS011;36795;45.028;38.968;2022-08-01T02:26:54;26.85;;;11.15;;
49384;SDS011;36795;45.028;38.968;2022-08-01T02:29:57;27.00;;;12.00;;
49384;SDS011;36795;45.028;38.968;2022-08-01T02:32:47;26.48;;;10.82;;
49384;SDS011;36795;45.028;38.968;2022-08-01T02:35:37;26.17;;;11.35;;
49384;SDS011;36795;45.028;38.968;2022-08-01T02:38:27;26.05;;;10.50;;
49384;SDS011;36795;45.028;38.968;2022-08-01T02:41:18;26.50;;;10.85;;
49384;SDS011;36795;45.028;38.968;2022-08-01T02:44:06;31.55;;;10.88;;
49384;SDS011;36795;45.028;38.968;2022-08-01T02:46:59;29.23;;;10.63;;
49384;SDS011;36795;45.028;38.968;2022-08-01T02:49:50;26.65;;;10.73;;
49384;SDS011;36795;45.028;38.968;2022-08-01T02:52:38;30.42;;;10.52;;
49384;SDS011;36795;45.028;38.968;2022-08-01T02:55:27;27.73;;;10.93;;
49384;SDS011;36795;45.028;38.968;2022-08-01T02:58:16;33.10;;;10.82;;
49384;SDS011;36795;45.028;38.968;2022-08-01T03:01:05;26.77;;;10.50;;
49384;SDS011;36795;45.028;38.968;2022-08-01T03:03:53;26.50;;;9.95;;
49384;SDS011;36795;45.028;38.968;2022-08-01T03:06:39;27.02;;;11.23;;
49384;SDS011;36795;45.028;38.968;2022-08-01T03:09:27;28.83;;;10.75;;
49384;SDS011;36795;45.028;38.968;2022-08-01T03:12:19;28.23;;;10.60;;
49384;SDS011;36795;45.028;38.968;2022-08-01T03:15:08;27.62;;;10.48;;
49384;SDS011;36795;45.028;38.968;2022-08-01T03:17:55;29.20;;;10.48;;
49384;SDS011;36795;45.028;38.968;2022-08-01T03:20:45;28.77;;;11.35;;
49384;SDS011;36795;45.028;38.968;2022-08-01T03:23:31;28.27;;;10.88;;
49384;SDS011;36795;45.028;38.968;2022-08-01T03:26:19;29.90;;;10.93;;
49384;SDS011;36795;45.028;38.968;2022-08-01T03:29:06;32.80;;;11.23;;
49384;SDS011;36795;45.028;38.968;2022-08-01T03:31:58;31.48;;;10.13;;
49384;SDS011;36795;45.028;38.968;2022-08-01T03:34:46;33.67;;;10.82;;
49384;SDS011;36795;45.028;38.968;2022-08-01T03:37:37;25.35;;;10.23;;
49384;SDS011;36795;45.028;38.968;2022-08-01T03:43:45;30.85;;;11.35;;
49384;SDS011;36795;45.028;38.968;2022-08-01T03:47:05;28.08;;;10.80;;
49384;SDS011;36795;45.028;38.968;2022-08-01T03:49:47;34.08;;;11.15;;
49384;SDS011;36795;45.028;38.968;2022-08-01T03:52:35;29.40;;;11.60;;
49384;SDS011;36795;45.028;38.968;2022-08-01T03:55:25;25.37;;;10.35;;
49384;SDS011;36795;45.028;38.968;2022-08-01T03:58:11;27.87;;;10.68;;
49384;SDS011;36795;45.028;38.968;2022-08-01T04:00:59;28.08;;;10.70;;
49384;SDS011;36795;45.028;38.968;2022-08-01T04:03:46;29.05;;;11.25;;
49384;SDS011;36795;45.028;38.968;2022-08-01T04:06:32;31.23;;;10.88;;
49384;SDS011;36795;45.028;38.968;2022-08-01T04:09:18;28.85;;;10.63;;
49384;SDS011;36795;45.028;38.968;2022-08-01T04:12:05;28.80;;;10.63;;
49384;SDS011;36795;45.028;38.968;2022-08-01T04:14:51;29.63;;;11.40;;
49384;SDS011;36795;45.028;38.968;2022-08-01T04:17:37;40.00;;;13.18;;
49384;SDS011;36795;45.028;38.968;2022-08-01T04:20:23;32.65;;;11.60;;
49384;SDS011;36795;45.028;38.968;2022-08-01T04:23:09;30.80;;;11.25;;
49384;SDS011;36795;45.028;38.968;2022-08-01T04:25:57;31.37;;;12.25;;
49384;SDS011;36795;45.028;38.968;2022-08-01T04:28:46;29.25;;;10.77;;
49384;SDS011;36795;45.028;38.968;2022-08-01T04:31:35;29.60;;;13.07;;
49384;SDS011;36795;45.028;38.968;2022-08-01T04:34:24;29.55;;;12.35;;
49384;SDS011;36795;45.028;38.968;2022-08-01T04:37:14;27.85;;;10.65;;
49384;SDS011;36795;45.028;38.968;2022-08-01T04:40:02;34.28;;;12.80;;
49384;SDS011;36795;45.028;38.968;2022-08-01T04:42:51;37.42;;;12.77;;
49384;SDS011;36795;45.028;38.968;2022-08-01T04:45:38;34.78;;;12.02;;
49384;SDS011;36795;45.028;38.968;2022-08-01T04:48:25;29.17;;;11.40;;
49384;SDS011;36795;45.028;38.968;2022-08-01T04:51:15;29.73;;;11.82;;
49384;SDS011;36795;45.028;38.968;2022-08-01T04:54:02;29.25;;;11.07;;
49384;SDS011;36795;45.028;38.968;2022-08-01T04:56:49;26.00;;;11.57;;
49384;SDS011;36795;45.028;38.968;2022-08-01T04:59:36;29.83;;;11.23;;
49384;SDS011;36795;45.028;38.968;2022-08-01T05:02:26;29.48;;;11.70;;
49384;SDS011;36795;45.028;38.968;2022-08-01T05:05:14;29.05;;;11.23;;
49384;SDS011;36795;45.028;38.968;2022-08-01T05:08:00;30.65;;;11.73;;
49384;SDS011;36795;45.028;38.968;2022-08-01T05:10:46;31.17;;;11.38;;
49384;SDS011;36795;45.028;38.968;2022-08-01T05:13:32;28.77;;;11.38;;
49384;SDS011;36795;45.028;38.968;2022-08-01T05:16:19;29.37;;;11.20;;
49384;SDS011;36795;45.028;38.968;2022-08-01T05:19:04;28.77;;;12.98;;
49384;SDS011;36795;45.028;38.968;2022-08-01T05:21:50;25.08;;;11.05;;
49384;SDS011;36795;45.028;38.968;2022-08-01T05:24:37;26.20;;;11.27;;
49384;SDS011;36795;45.028;38.968;2022-08-01T05:27:25;30.25;;;11.07;;
49384;SDS011;36795;45.028;38.968;2022-08-01T05:30:11;29.58;;;11.02;;
49384;SDS011;36795;45.028;38.968;2022-08-01T05:32:57;26.02;;;11.88;;
49384;SDS011;36795;45.028;38.968;2022-08-01T05:35:43;26.42;;;10.82;;
49384;SDS011;36795;45.028;38.968;2022-08-01T05:38:29;24.75;;;10.55;;
49384;SDS011;36795;45.028;38.968;2022-08-01T05:41:15;26.23;;;10.52;;
49384;SDS011;36795;45.028;38.968;2022-08-01T05:44:02;24.60;;;10.80;;
49384;SDS011;36795;45.028;38.968;2022-08-01T05:46:49;23.65;;;9.75;;
49384;SDS011;36795;45.028;38.968;2022-08-01T05:49:35;23.62;;;11.30;;
49384;SDS011;36795;45.028;38.968;2022-08-01T05:52:21;26.35;;;11.30;;
49384;SDS011;36795;45.028;38.968;2022-08-01T05:55:07;23.33;;;10.48;;
49384;SDS011;36795;45.028;38.968;2022-08-01T05:57:54;23.30;;;10.27;;
49384;SDS011;36795;45.028;38.968;2022-08-01T06:00:41;24.95;;;10.35;;
49384;SDS011;36795;45.028;38.968;2022-08-01T06:03:27;21.87;;;10.18;;
49384;SDS011;36795;45.028;38.968;2022-08-01T06:06:15;24.33;;;10.82;;
49384;SDS011;36795;45.028;38.968;2022-08-01T06:09:02;22.60;;;11.50;;
49384;SDS011;36795;45.028;38.968;2022-08-01T06:11:48;25.33;;;10.63;;
49384;SDS011;36795;45.028;38.968;2022-08-01T06:14:34;25.40;;;10.60;;
49384;SDS011;36795;45.028;38.968;2022-08-01T06:17:20;23.90;;;11.45;;
49384;SDS011;36795;45.028;38.968;2022-08-01T06:20:07;22.60;;;11.12;;
49384;SDS011;36795;45.028;38.968;2022-08-01T06:22:53;26.10;;;11.95;;
49384;SDS011;36795;45.028;38.968;2022-08-01T06:25:40;25.52;;;11.12;;
49384;SDS011;36795;45.028;38.968;2022-08-01T06:28:25;25.60;;;11.55;;
49384;SDS011;36795;45.028;38.968;2022-08-01T06:31:12;22.60;;;10.85;;
49384;SDS011;36795;45.028;38.968;2022-08-01T06:33:59;30.52;;;11.80;;
49384;SDS011;36795;45.028;38.968;2022-08-01T06:36:46;29.73;;;11.20;;
49384;SDS011;36795;45.028;38.968;2022-08-01T06:39:32;25.67;;;11.57;;
49384;SDS011;36795;45.028;38.968;2022-08-01T06:42:18;23.48;;;10.85;;
49384;SDS011;36795;45.028;38.968;2022-08-01T06:45:04;26.67;;;11.07;;
49384;SDS011;36795;45.028;38.968;2022-08-01T06:47:52;26.67;;;11.32;;
49384;SDS011;36795;45.028;38.968;2022-08-01T06:50:38;23.65;;;11.05;;
49384;SDS011;36795;45.028;38.968;2022-08-01T06:53:25;28.42;;;11.32;;
49384;SDS011;36795;45.028;38.968;2022-08-01T06:56:11;25.65;;;10.63;;
49384;SDS011;36795;45.028;38.968;2022-08-01T06:58:57;25.23;;;11.02;;
49384;SDS011;36795;45.028;38.968;2022-08-01T07:01:45;25.25;;;10.35;;
49384;SDS011;36795;45.028;38.968;2022-08-01T07:04:31;28.33;;;12.23;;
49384;SDS011;36795;45.028;38.968;2022-08-01T07:07:17;23.42;;;10.45;;
49384;SDS011;36795;45.028;38.968;2022-08-01T07:10:04;27.13;;;11.35;;
49384;SDS011;36795;45.028;38.968;2022-08-01T07:12:50;27.35;;;11.82;;
49384;SDS011;36795;45.028;38.968;2022-08-01T07:15:37;28.55;;;11.43;;
49384;SDS011;36795;45.028;38.968;2022-08-01T07:18:22;25.15;;;11.65;;
49384;SDS011;36795;45.028;38.968;2022-08-01T07:21:09;24.40;;;11.10;;
49384;SDS011;36795;45.028;38.968;2022-08-01T07:23:55;28.17;;;11.68;;
49384;SDS011;36795;45.028;38.968;2022-08-01T07:26:42;25.48;;;10.82;;
49384;SDS011;36795;45.028;38.968;2022-08-01T07:29:32;28.12;;;12.23;;
49384;SDS011;36795;45.028;38.968;2022-08-01T07:32:18;28.38;;;11.85;;
49384;SDS011;36795;45.028;38.968;2022-08-01T07:35:04;27.05;;;11.70;;
49384;SDS011;36795;45.028;38.968;2022-08-01T07:37:51;37.10;;;12.80;;
49384;SDS011;36795;45.028;38.968;2022-08-01T07:40:38;26.77;;;12.75;;
49384;SDS011;36795;45.028;38.968;2022-08-01T07:43:24;26.73;;;12.20;;
49384;SDS011;36795;45.028;38.968;2022-08-01T07:46:10;27.80;;;11.45;;
49384;SDS011;36795;45.028;38.968;2022-08-01T07:48:57;26.48;;;11.50;;
49384;SDS011;36795;45.028;38.968;2022-08-01T07:51:42;28.75;;;12.05;;
49384;SDS011;36795;45.028;38.968;2022-08-01T07:54:29;30.75;;;12.77;;
49384;SDS011;36795;45.028;38.968;2022-08-01T07:57:15;27.55;;;12.85;;
49384;SDS011;36795;45.028;38.968;2022-08-01T08:00:02;26.10;;;11.60;;
49384;SDS011;36795;45.028;38.968;2022-08-01T08:02:51;38.13;;;13.50;;
49384;SDS011;36795;45.028;38.968;2022-08-01T08:05:38;32.33;;;11.93;;
49384;SDS011;36795;45.028;38.968;2022-08-01T08:08:25;29.08;;;11.38;;
49384;SDS011;36795;45.028;38.968;2022-08-01T08:11:11;29.15;;;12.43;;
49384;SDS011;36795;45.028;38.968;2022-08-01T08:13:57;30.25;;;12.77;;
49384;SDS011;36795;45.028;38.968;2022-08-01T08:16:43;31.42;;;11.48;;
49384;SDS011;36795;45.028;38.968;2022-08-01T08:19:29;27.10;;;12.05;;
49384;SDS011;36795;45.028;38.968;2022-08-01T08:22:18;27.65;;;11.43;;
49384;SDS011;36795;45.028;38.968;2022-08-01T08:25:05;29.70;;;11.98;;
49384;SDS011;36795;45.028;38.968;2022-08-01T08:27:52;30.75;;;11.70;;
49384;SDS011;36795;45.028;38.968;2022-08-01T08:30:39;26.58;;;12.32;;
49384;SDS011;36795;45.028;38.968;2022-08-01T08:33:24;29.70;;;13.10;;
49384;SDS011;36795;45.028;38.968;2022-08-01T08:36:11;28.55;;;13.25;;
49384;SDS011;36795;45.028;38.968;2022-08-01T08:38:59;30.98;;;12.32;;
49384;SDS011;36795;45.028;38.968;2022-08-01T08:41:46;27.00;;;12.20;;
49384;SDS011;36795;45.028;38.968;2022-08-01T08:44:32;32.40;;;11.55;;
49384;SDS011;36795;45.028;38.968;2022-08-01T08:47:19;31.33;;;13.68;;
49384;SDS011;36795;45.028;38.968;2022-08-01T08:50:07;30.52;;;13.60;;
49384;SDS011;36795;45.028;38.968;2022-08-01T08:52:54;27.10;;;12.45;;
49384;SDS011;36795;45.028;38.968;2022-08-01T08:55:42;30.75;;;13.60;;
49384;SDS011;36795;45.028;38.968;2022-08-01T08:58:28;30.70;;;13.30;;
49384;SDS011;36795;45.028;38.968;2022-08-01T09:01:18;28.30;;;12.85;;
49384;SDS011;36795;45.028;38.968;2022-08-01T09:04:05;31.85;;;12.68;;
49384;SDS011;36795;45.028;38.968;2022-08-01T09:06:51;28.67;;;13.07;;
49384;SDS011;36795;45.028;38.968;2022-08-01T09:09:38;25.98;;;12.15;;
49384;SDS011;36795;45.028;38.968;2022-08-01T09:12:24;31.55;;;12.70;;
49384;SDS011;36795;45.028;38.968;2022-08-01T09:15:10;29.65;;;12.65;;
49384;SDS011;36795;45.028;38.968;2022-08-01T09:17:56;28.77;;;12.10;;
49384;SDS011;36795;45.028;38.968;2022-08-01T09:20:43;27.45;;;12.85;;
49384;SDS011;36795;45.028;38.968;2022-08-01T09:23:33;30.08;;;12.50;;
49384;SDS011;36795;45.028;38.968;2022-08-01T09:26:40;30.45;;;12.88;;
49384;SDS011;36795;45.028;38.968;2022-08-01T09:29:28;29.85;;;13.45;;
49384;SDS011;36795;45.028;38.968;2022-08-01T09:32:19;30.70;;;12.45;;
49384;SDS011;36795;45.028;38.968;2022-08-01T09:41:01;27.58;;;11.90;;
49384;SDS011;36795;45.028;38.968;2022-08-01T09:43:49;28.98;;;11.82;;
49384;SDS011;36795;45.028;38.968;2022-08-01T09:46:35;28.00;;;12.55;;
49384;SDS011;36795;45.028;38.968;2022-08-01T09:49:34;30.92;;;12.52;;
49384;SDS011;36795;45.028;38.968;2022-08-01T09:52:23;28.00;;;12.57;;
49384;SDS011;36795;45.028;38.968;2022-08-01T09:55:10;30.88;;;12.40;;
49384;SDS011;36795;45.028;38.968;2022-08-01T09:57:56;32.33;;;12.93;;
49384;SDS011;36795;45.028;38.968;2022-08-01T10:00:57;33.97;;;13.45;;
49384;SDS011;36795;45.028;38.968;2022-08-01T10:03:45;27.62;;;12.68;;
49384;SDS011;36795;45.028;38.968;2022-08-01T10:06:31;29.08;;;12.60;;
49384;SDS011;36795;45.028;38.968;2022-08-01T10:09:36;27.27;;;12.50;;
49384;SDS011;36795;45.028;38.968;2022-08-01T10:12:23;30.37;;;12.45;;
49384;SDS011;36795;45.028;38.968;2022-08-01T10:15:10;32.45;;;13.55;;
49384;SDS011;36795;45.028;38.968;2022-08-01T10:18:00;29.75;;;13.45;;
49384;SDS011;36795;45.028;38.968;2022-08-01T10:20:49;29.02;;;13.40;;
49384;SDS011;36795;45.028;38.968;2022-08-01T10:23:36;32.33;;;13.88;;
49384;SDS011;36795;45.028;38.968;2022-08-01T10:26:25;31.95;;;13.48;;
49384;SDS011;36795;45.028;38.968;2022-08-01T10:29:11;31.67;;;12.75;;
49384;SDS011;36795;45.028;38.968;2022-08-01T10:31:59;32.03;;;13.13;;
49384;SDS011;36795;45.028;38.968;2022-08-01T10:34:45;26.83;;;12.50;;
49384;SDS011;36795;45.028;38.968;2022-08-01T10:37:32;36.47;;;14.18;;
49384;SDS011;36795;45.028;38.968;2022-08-01T10:40:19;32.38;;;12.00;;
49384;SDS011;36795;45.028;38.968;2022-08-01T10:43:07;27.20;;;10.90;;
49384;SDS011;36795;45.028;38.968;2022-08-01T10:45:59;28.23;;;11.05;;
49384;SDS011;36795;45.028;38.968;2022-08-01T10:48:55;25.58;;;10.68;;
49384;SDS011;36795;45.028;38.968;2022-08-01T10:51:55;27.70;;;11.05;;
49384;SDS011;36795;45.028;38.968;2022-08-01T10:54:41;26.02;;;10.55;;
49384;SDS011;36795;45.028;38.968;2022-08-01T10:57:44;23.50;;;10.38;;
49384;SDS011;36795;45.028;38.968;2022-08-01T11:00:31;21.87;;;10.13;;
49384;SDS011;36795;45.028;38.968;2022-08-01T11:03:26;24.50;;;10.45;;
49384;SDS011;36795;45.028;38.968;2022-08-01T11:06:20;34.15;;;11.00;;
49384;SDS011;36795;45.028;38.968;2022-08-01T11:17:46;22.70;;;7.82;;
49384;SDS011;36795;45.028;38.968;2022-08-01T11:20:36;24.37;;;7.85;;
49384;SDS011;36795;45.028;38.968;2022-08-01T11:23:23;20.23;;;7.57;;
49384;SDS011;36795;45.028;38.968;2022-08-01T11:26:12;22.27;;;7.53;;
49384;SDS011;36795;45.028;38.968;2022-08-01T11:29:14;20.65;;;7.97;;
49384;SDS011;36795;45.028;38.968;2022-08-01T11:32:23;21.60;;;7.53;;
49384;SDS011;36795;45.028;38.968;2022-08-01T11:35:11;21.30;;;7.80;;
49384;SDS011;36795;45.028;38.968;2022-08-01T11:38:22;22.50;;;8.32;;
49384;SDS011;36795;45.028;38.968;2022-08-01T11:44:21;20.70;;;8.27;;
49384;SDS011;36795;45.028;38.968;2022-08-01T11:47:11;22.35;;;8.05;;
49384;SDS011;36795;45.028;38.968;2022-08-01T11:49:57;24.20;;;9.02;;
49384;SDS011;36795;45.028;38.968;2022-08-01T11:52:44;22.83;;;7.50;;
49384;SDS011;36795;45.028;38.968;2022-08-01T11:55:31;22.83;;;7.95;;
49384;SDS011;36795;45.028;38.968;2022-08-01T11:58:25;21.67;;;7.50;;
49384;SDS011;36795;45.028;38.968;2022-08-01T12:01:11;23.58;;;8.48;;
49384;SDS011;36795;45.028;38.968;2022-08-01T12:03:59;23.95;;;8.32;;
49384;SDS011;36795;45.028;38.968;2022-08-01T12:06:44;23.67;;;8.55;;
49384;SDS011;36795;45.028;38.968;2022-08-01T12:09:31;23.20;;;9.68;;
49384;SDS011;36795;45.028;38.968;2022-08-01T12:12:17;24.70;;;8.60;;
49384;SDS011;36795;45.028;38.968;2022-08-01T12:15:04;25.75;;;8.52;;
49384;SDS011;36795;45.028;38.968;2022-08-01T12:17:57;22.92;;;9.00;;
49384;SDS011;36795;45.028;38.968;2022-08-01T12:20:45;22.27;;;8.38;;
49384;SDS011;36795;45.028;38.968;2022-08-01T12:23:31;25.52;;;8.95;;
49384;SDS011;36795;45.028;38.968;2022-08-01T12:26:18;22.87;;;8.43;;
49384;SDS011;36795;45.028;38.968;2022-08-01T12:29:04;24.10;;;9.15;;
49384;SDS011;36795;45.028;38.968;2022-08-01T12:31:51;24.23;;;9.20;;
49384;SDS011;36795;45.028;38.968;2022-08-01T12:34:37;24.75;;;9.30;;
49384;SDS011;36795;45.028;38.968;2022-08-01T12:37:23;25.42;;;9.90;;
49384;SDS011;36795;45.028;38.968;2022-08-01T12:40:14;21.98;;;9.98;;
49384;SDS011;36795;45.028;38.968;2022-08-01T12:43:03;22.55;;;9.60;;
49384;SDS011;36795;45.028;38.968;2022-08-01T12:45:52;22.80;;;9.32;;
49384;SDS011;36795;45.028;38.968;2022-08-01T12:48:40;21.08;;;7.80;;
49384;SDS011;36795;45.028;38.968;2022-08-01T12:51:26;20.85;;;7.95;;
49384;SDS011;36795;45.028;38.968;2022-08-01T12:54:13;21.37;;;8.98;;
49384;SDS011;36795;45.028;38.968;2022-08-01T12:56:59;31.08;;;12.00;;
49384;SDS011;36795;45.028;38.968;2022-08-01T12:59:45;32.58;;;12.68;;
49384;SDS011;36795;45.028;38.968;2022-08-01T13:02:32;31.75;;;11.93;;
49384;SDS011;36795;45.028;38.968;2022-08-01T13:05:19;32.55;;;11.93;;
49384;SDS011;36795;45.028;38.968;2022-08-01T13:08:32;30.05;;;12.37;;
49384;SDS011;36795;45.028;38.968;2022-08-01T13:11:17;30.70;;;12.45;;
49384;SDS011;36795;45.028;38.968;2022-08-01T13:14:04;29.05;;;11.82;;
49384;SDS011;36795;45.028;38.968;2022-08-01T13:16:51;23.00;;;9.57;;
49384;SDS011;36795;45.028;38.968;2022-08-01T13:19:43;26.58;;;9.60;;
49384;SDS011;36795;45.028;38.968;2022-08-01T13:22:33;26.15;;;9.68;;
49384;SDS011;36795;45.028;38.968;2022-08-01T13:25:20;26.05;;;9.82;;
49384;SDS011;36795;45.028;38.968;2022-08-01T13:28:17;22.23;;;9.43;;
49384;SDS011;36795;45.028;38.968;2022-08-01T13:31:05;24.20;;;10.00;;
49384;SDS011;36795;45.028;38.968;2022-08-01T13:33:52;26.52;;;11.18;;
49384;SDS011;36795;45.028;38.968;2022-08-01T13:36:39;27.30;;;9.98;;
49384;SDS011;36795;45.028;38.968;2022-08-01T13:39:25;29.25;;;10.48;;
49384;SDS011;36795;45.028;38.968;2022-08-01T13:42:29;26.75;;;10.95;;
49384;SDS011;36795;45.028;38.968;2022-08-01T13:45:15;29.23;;;10.45;;
49384;SDS011;36795;45.028;38.968;2022-08-01T13:48:01;25.80;;;10.15;;
49384;SDS011;36795;45.028;38.968;2022-08-01T13:50:48;27.40;;;11.63;;
49384;SDS011;36795;45.028;38.968;2022-08-01T13:53:34;30.17;;;15.85;;
49384;SDS011;36795;45.028;38.968;2022-08-01T13:56:21;38.38;;;20.90;;
49384;SDS011;36795;45.028;38.968;2022-08-01T13:59:06;34.80;;;20.10;;
49384;SDS011;36795;45.028;38.968;2022-08-01T14:01:53;30.08;;;14.50;;
49384;SDS011;36795;45.028;38.968;2022-08-01T14:04:40;26.98;;;10.55;;
49384;SDS011;36795;45.028;38.968;2022-08-01T14:07:27;24.30;;;9.63;;
49384;SDS011;36795;45.028;38.968;2022-08-01T14:10:13;34.72;;;11.73;;
49384;SDS011;36795;45.028;38.968;2022-08-01T14:12:59;26.42;;;10.40;;
49384;SDS011;36795;45.028;38.968;2022-08-01T14:15:46;26.25;;;9.82;;
49384;SDS011;36795;45.028;38.968;2022-08-01T14:18:32;29.95;;;11.95;;
49384;SDS011;36795;45.028;38.968;2022-08-01T14:21:18;31.35;;;13.82;;
49384;SDS011;36795;45.028;38.968;2022-08-01T14:24:06;35.33;;;14.63;;
49384;SDS011;36795;45.028;38.968;2022-08-01T14:26:53;35.53;;;14.87;;
49384;SDS011;36795;45.028;38.968;2022-08-01T14:29:39;47.72;;;18.27;;
49384;SDS011;36795;45.028;38.968;2022-08-01T14:32:25;31.27;;;14.75;;
49384;SDS011;36795;45.028;38.968;2022-08-01T14:35:11;31.75;;;16.17;;
49384;SDS011;36795;45.028;38.968;2022-08-01T14:37:57;31.65;;;15.73;;
49384;SDS011;36795;45.028;38.968;2022-08-01T14:40:43;34.45;;;17.87;;
49384;SDS011;36795;45.028;38.968;2022-08-01T14:43:32;41.85;;;17.77;;
49384;SDS011;36795;45.028;38.968;2022-08-01T14:46:18;33.33;;;17.37;;
49384;SDS011;36795;45.028;38.968;2022-08-01T14:49:04;34.83;;;17.55;;
49384;SDS011;36795;45.028;38.968;2022-08-01T14:51:51;30.37;;;16.48;;
49384;SDS011;36795;45.028;38.968;2022-08-01T14:54:37;31.42;;;16.30;;
49384;SDS011;36795;45.028;38.968;2022-08-01T14:57:23;32.65;;;15.73;;
49384;SDS011;36795;45.028;38.968;2022-08-01T15:00:10;34.35;;;19.23;;
49384;SDS011;36795;45.028;38.968;2022-08-01T15:02:58;29.15;;;15.60;;
49384;SDS011;36795;45.028;38.968;2022-08-01T15:05:44;27.62;;;12.90;;
49384;SDS011;36795;45.028;38.968;2022-08-01T15:08:30;22.83;;;8.73;;
49384;SDS011;36795;45.028;38.968;2022-08-01T15:11:17;21.75;;;9.07;;
49384;SDS011;36795;45.028;38.968;2022-08-01T15:14:03;19.55;;;7.72;;
49384;SDS011;36795;45.028;38.968;2022-08-01T15:17:09;20.73;;;6.75;;
49384;SDS011;36795;45.028;38.968;2022-08-01T15:19:55;14.48;;;4.28;;
49384;SDS011;36795;45.028;38.968;2022-08-01T15:22:43;16.23;;;4.80;;
49384;SDS011;36795;45.028;38.968;2022-08-01T15:25:29;20.50;;;5.65;;
49384;SDS011;36795;45.028;38.968;2022-08-01T15:28:16;18.62;;;6.00;;
49384;SDS011;36795;45.028;38.968;2022-08-01T15:31:02;22.23;;;7.10;;
49384;SDS011;36795;45.028;38.968;2022-08-01T15:33:48;24.90;;;8.55;;
49384;SDS011;36795;45.028;38.968;2022-08-01T15:36:34;21.50;;;7.70;;
49384;SDS011;36795;45.028;38.968;2022-08-01T15:39:20;21.42;;;6.25;;
49384;SDS011;36795;45.028;38.968;2022-08-01T15:42:08;20.50;;;6.45;;
49384;SDS011;36795;45.028;38.968;2022-08-01T15:44:57;20.77;;;7.65;;
49384;SDS011;36795;45.028;38.968;2022-08-01T15:47:42;20.55;;;7.35;;
49384;SDS011;36795;45.028;38.968;2022-08-01T15:50:29;23.87;;;8.02;;
49384;SDS011;36795;45.028;38.968;2022-08-01T15:53:15;21.48;;;8.50;;
49384;SDS011;36795;45.028;38.968;2022-08-01T15:56:01;22.15;;;8.75;;
49384;SDS011;36795;45.028;38.968;2022-08-01T15:58:48;19.10;;;6.70;;
49384;SDS011;36795;45.028;38.968;2022-08-01T16:01:34;21.90;;;8.02;;
49384;SDS011;36795;45.028;38.968;2022-08-01T16:04:21;22.13;;;8.48;;
49384;SDS011;36795;45.028;38.968;2022-08-01T16:07:07;20.75;;;8.93;;
49384;SDS011;36795;45.028;38.968;2022-08-01T16:09:54;21.65;;;8.88;;
49384;SDS011;36795;45.028;38.968;2022-08-01T16:12:42;22.08;;;8.10;;
49384;SDS011;36795;45.028;38.968;2022-08-01T16:15:28;22.55;;;7.40;;
49384;SDS011;36795;45.028;38.968;2022-08-01T16:18:16;21.62;;;7.97;;
49384;SDS011;36795;45.028;38.968;2022-08-01T16:21:03;23.80;;;7.87;;
49384;SDS011;36795;45.028;38.968;2022-08-01T16:23:50;25.58;;;8.30;;
49384;SDS011;36795;45.028;38.968;2022-08-01T16:26:36;21.02;;;8.00;;
49384;SDS011;36795;45.028;38.968;2022-08-01T16:29:22;26.42;;;8.30;;
49384;SDS011;36795;45.028;38.968;2022-08-01T16:32:10;21.10;;;8.05;;
49384;SDS011;36795;45.028;38.968;2022-08-01T16:34:55;22.95;;;8.95;;
49384;SDS011;36795;45.028;38.968;2022-08-01T16:37:42;30.83;;;9.00;;
49384;SDS011;36795;45.028;38.968;2022-08-01T16:40:28;22.83;;;8.07;;
49384;SDS011;36795;45.028;38.968;2022-08-01T16:43:14;20.50;;;7.47;;
49384;SDS011;36795;45.028;38.968;2022-08-01T16:46:01;21.27;;;6.90;;
49384;SDS011;36795;45.028;38.968;2022-08-01T16:48:48;19.48;;;6.60;;